Upstream stations:
Downstream station:
SHEF ID: COMO2 Neosho River nr Commerce, OK
STATION TYPE:
Regulating: Stage = 15.00, Flow = 22115
PRECIP STAGE STAGE(2) RIV-FLOW BAT-LOAD
in ft ft cfs volt
Ccp-Rev Ccp-Rev Ccp-Rev Ccp-Rev Ccp-Rev
(US/Central)
03/25 00:00 0.00 11.12 9.58 14605 12.41
03/25 01:00 0.00 10.82 8.62 14053 12.41
03/25 02:00 0.00 10.56 8.78 13585 12.33
03/25 03:00 0.01 10.27 9.80 13064 12.33
03/25 04:00 0.00 10.00 9.46 12582 12.33
03/25 05:00 0.00 9.71 6.16 12066 12.33
03/25 06:00 0.00 9.44 6.63 11588 12.33
03/25 07:00 0.00 9.14 7.71 11059 12.33
03/25 08:00 0.00 8.87 8.41 10585 12.41
03/25 09:00 0.00 8.60 6.13 10113 13.05
03/25 10:00 0.00 8.39 6.09 9748 13.29
03/25 11:00 0.01 8.20 4.58 9418 13.29
03/25 12:00 0.00 7.89 6.69 8884 13.29
03/25 13:00 0.00 7.68 7.34 8523 13.53
03/25 14:00 0.00 7.50 5.96 8216 13.53
03/25 15:00 0.01 7.31 5.52 7892 13.29
03/25 16:00 0.00 7.08 7.19 7503 13.21
03/25 17:00 0.00 6.91 5.13 7216 13.05
03/25 18:00 0.00 6.73 4.13 6914 12.97
03/25 19:00 0.00 6.57 4.64 6646 12.89
03/25 20:00 0.00 6.42 6.19 6396 12.81
03/25 21:00 0.00 6.27 5.65 6145 12.73
03/25 22:00 0.00 6.12 4.72 5894 12.73
03/25 23:00 0.00 6.00 5.66 5693 12.73